Time;durP1;ratioP1;P1;durP2;ratioP2;P2;SDS_P1;SDS_P2;PMS_P1;PMS_P2;Temp;Humidity;BMP_temperature;BMP_pressure;BME280_temperature;BME280_humidity;BME280_pressure;Samples;Min_cycle;Max_cycle;Signal;HPM_P1;HPM_P2
2021/05/25 00:01:02;;;;;;;10.65;2.30;;;9.90;99.90;;;9.57;90.08;101530.13;4106113;28;20035;-72
2021/05/25 00:03:07;;;;;;;12.20;2.92;;;9.80;99.90;;;9.56;90.68;101538.97;4106130;28;20051;-72
2021/05/25 00:05:10;;;;;;;10.70;2.78;;;9.80;99.90;;;9.46;90.90;101530.19;4104879;28;20175;-72
2021/05/25 00:07:11;;;;;;;14.38;2.67;;;9.80;99.90;;;9.45;90.90;101533.78;4105121;28;20038;-72
2021/05/25 00:09:14;;;;;;;9.52;2.80;;;9.80;99.90;;;9.59;90.42;101546.63;4111526;28;20039;-72
2021/05/25 00:11:15;;;;;;;11.02;3.00;;;9.70;99.90;;;9.52;91.32;101552.56;4122102;28;20501;-72
2021/05/25 00:13:17;;;;;;;9.80;2.45;;;9.70;99.90;;;9.55;91.08;101545.22;4122088;28;20538;-72
2021/05/25 00:15:23;;;;;;;13.80;2.47;;;9.80;99.90;;;9.63;90.71;101560.38;4120853;28;20031;-72
2021/05/25 00:17:24;;;;;;;10.60;3.00;;;9.80;99.90;;;9.54;91.04;101556.72;4121815;28;20462;-72
2021/05/25 00:19:25;;;;;;;14.88;3.08;;;9.80;99.90;;;9.55;91.27;101553.13;4120775;28;20094;-72
2021/05/25 00:21:26;;;;;;;14.05;2.78;;;9.80;99.90;;;9.51;90.93;101550.88;4121717;28;20042;-72
2021/05/25 00:23:27;;;;;;;13.60;2.67;;;9.70;99.90;;;9.37;91.92;101552.03;4121882;28;20053;-72
2021/05/25 00:25:31;;;;;;;11.40;2.72;;;9.70;99.90;;;9.34;91.81;101552.28;4121864;28;20085;-72
2021/05/25 00:27:33;;;;;;;10.45;2.63;;;9.70;99.90;;;9.37;92.16;101554.66;4121730;28;20062;-72
2021/05/25 00:29:34;;;;;;;12.13;2.28;;;9.70;99.90;;;9.31;92.67;101558.66;4121635;28;20102;-72
2021/05/25 00:31:35;;;;;;;10.73;3.25;;;9.60;99.90;;;9.29;92.38;101551.81;4121689;28;20023;-72
2021/05/25 00:33:36;;;;;;;8.30;1.88;;;9.60;99.90;;;9.23;92.96;101557.59;4121660;28;20030;-72
2021/05/25 00:35:40;;;;;;;10.18;2.30;;;9.50;99.90;;;9.25;92.68;101567.06;4121781;28;20025;-72
2021/05/25 00:37:41;;;;;;;10.90;3.23;;;9.50;99.90;;;9.24;93.47;101564.53;4121711;28;20081;-72
2021/05/25 00:39:42;;;;;;;13.32;2.45;;;9.50;99.90;;;9.27;92.65;101559.03;4121753;28;20482;-72
2021/05/25 00:41:43;;;;;;;10.55;2.30;;;9.50;99.90;;;9.21;93.06;101567.44;4121727;28;20113;-72
2021/05/25 00:43:44;;;;;;;9.75;2.20;;;9.50;99.90;;;9.09;94.09;101571.91;4121604;28;20041;-72
2021/05/25 00:45:45;;;;;;;8.52;2.63;;;9.40;99.90;;;9.17;94.33;101577.38;4121528;28;20402;-72
2021/05/25 00:47:46;;;;;;;17.15;3.22;;;9.40;99.90;;;9.16;94.45;101577.50;4121622;28;20398;-72
2021/05/25 00:49:47;;;;;;;12.57;3.38;;;9.40;99.90;;;9.20;93.45;101571.84;4121517;28;20026;-72
2021/05/25 00:51:48;;;;;;;12.45;2.60;;;9.40;99.90;;;9.13;94.24;101575.13;4121540;28;20139;-72
2021/05/25 00:53:49;;;;;;;12.93;3.15;;;9.40;99.90;;;9.14;94.21;101576.81;4121376;28;20027;-72
2021/05/25 00:55:51;;;;;;;6.28;2.20;;;9.30;99.90;;;9.16;94.04;101582.78;4121523;28;20478;-72
2021/05/25 00:57:54;;;;;;;9.68;2.55;;;9.40;99.90;;;9.14;93.85;101579.44;4121524;28;20046;-72
2021/05/25 00:59:55;;;;;;;10.43;2.50;;;9.30;99.90;;;9.07;94.42;101579.09;4121424;28;20072;-72
2021/05/25 01:01:56;;;;;;;9.70;2.97;;;9.30;99.90;;;9.04;94.76;101586.41;4119885;28;20037;-72
2021/05/25 01:03:58;;;;;;;17.42;3.15;;;9.30;99.90;;;9.13;94.48;101585.66;4121141;28;20046;-72
2021/05/25 01:05:59;;;;;;;8.77;2.40;;;9.30;99.90;;;9.06;94.66;101581.84;4121305;28;20045;-72
2021/05/25 01:08:00;;;;;;;10.98;3.60;;;9.30;99.90;;;8.99;95.24;101580.69;4121307;28;20482;-72
2021/05/25 01:10:03;;;;;;;8.77;2.20;;;9.30;99.90;;;9.03;95.20;101587.38;4119832;28;20504;-72
2021/05/25 01:12:07;;;;;;;12.45;4.00;;;9.30;99.90;;;9.06;95.69;101593.22;4121381;28;20031;-72
2021/05/25 01:14:09;;;;;;;;;;;9.30;99.90;;;9.11;95.72;101601.56;4121724;28;20034;-72
2021/05/25 01:16:10;;;;;;;7.90;2.22;;;9.30;99.90;;;9.06;95.99;101592.38;4120961;28;19914;-72
2021/05/25 01:18:12;;;;;;;10.18;2.72;;;9.30;99.90;;;8.99;95.88;101597.28;4120984;28;20041;-72
2021/05/25 01:20:15;;;;;;;9.38;2.13;;;9.30;99.90;;;8.96;96.25;101597.53;4120050;28;20590;-72
2021/05/25 01:22:16;;;;;;;12.80;2.63;;;9.30;99.90;;;9.09;96.37;101607.91;4121150;28;20022;-72
2021/05/25 01:24:16;;;;;;;9.00;3.15;;;9.30;99.90;;;9.14;95.82;101603.94;4120978;28;20034;-72
2021/05/25 01:26:18;;;;;;;9.55;3.45;;;9.30;99.90;;;9.14;96.08;101605.78;4120881;28;20027;-72
2021/05/25 01:28:21;;;;;;;15.05;3.45;;;9.30;99.90;;;9.14;96.29;101600.50;4121038;28;20034;-72
2021/05/25 01:30:31;;;;;;;10.63;3.38;;;9.30;99.90;;;9.12;96.84;101605.03;4120602;28;20402;-72
2021/05/25 01:32:32;;;;;;;11.50;3.15;;;9.30;99.90;;;9.10;97.04;101610.44;4120560;28;20034;-72
2021/05/25 01:34:36;;;;;;;10.23;3.60;;;9.30;99.90;;;9.24;96.07;101601.41;4103811;28;20033;-72
2021/05/25 01:36:37;;;;;;;11.20;2.97;;;9.40;99.90;;;9.24;95.36;101601.41;4105167;28;20023;-72
2021/05/25 01:38:39;;;;;;;18.10;3.33;;;9.40;99.90;;;9.33;95.62;101603.28;4103703;28;20062;-72
2021/05/25 01:40:41;;;;;;;9.80;2.92;;;9.40;99.90;;;9.39;95.66;101598.34;4104736;28;20030;-72
2021/05/25 01:42:42;;;;;;;12.50;3.63;;;9.50;99.90;;;9.25;95.47;101596.03;4104883;28;20027;-72
2021/05/25 01:44:43;;;;;;;13.43;3.63;;;9.50;99.90;;;9.22;96.11;101600.69;4104887;28;20530;-72
2021/05/25 01:46:48;;;;;;;21.23;4.10;;;9.40;99.90;;;9.20;96.79;101603.44;4104461;28;20027;-72
2021/05/25 01:48:49;;;;;;;11.20;2.78;;;9.40;99.90;;;9.11;96.77;101600.75;4104598;28;20502;-72
2021/05/25 01:50:51;;;;;;;16.85;2.90;;;9.40;99.90;;;9.11;96.31;101606.81;4104908;28;20033;-72
2021/05/25 01:52:58;;;;;;;13.57;2.92;;;9.40;99.90;;;9.17;96.66;101608.16;4104782;28;20031;-72
2021/05/25 01:54:59;;;;;;;11.95;2.55;;;9.30;99.90;;;9.05;96.80;101609.16;4104762;28;20534;-72
2021/05/25 01:57:00;;;;;;;10.85;2.20;;;9.40;99.90;;;9.16;96.33;101607.31;4104451;28;20027;-72
2021/05/25 01:59:01;;;;;;;9.63;2.78;;;9.40;99.90;;;9.11;96.38;101613.91;4104600;28;20066;-72
2021/05/25 02:01:09;;;;;;;8.95;2.53;;;9.30;99.90;;;9.11;96.53;101614.72;4104292;28;20131;-72
2021/05/25 02:03:10;;;;;;;13.63;2.42;;;9.30;99.90;;;9.16;96.57;101614.38;4104394;28;20086;-72
2021/05/25 02:05:11;;;;;;;12.65;3.28;;;9.30;99.90;;;9.15;95.98;101612.69;4104337;28;20023;-72
2021/05/25 02:07:18;;;;;;;11.68;3.90;;;9.40;99.90;;;9.16;95.71;101609.94;4104455;28;20106;-72
2021/05/25 02:09:19;;;;;;;13.52;3.13;;;9.40;99.90;;;9.08;96.30;101612.34;4110781;28;20553;-72
2021/05/25 02:11:20;;;;;;;11.60;2.88;;;9.30;99.90;;;9.03;96.37;101618.94;4120322;28;20026;-72
2021/05/25 02:13:31;;;;;;;9.15;2.95;;;9.30;99.90;;;9.25;96.17;101618.88;4120195;28;20085;-72
2021/05/25 02:15:33;;;;;;;9.55;2.80;;;9.40;99.90;;;9.18;95.81;101607.16;4120378;28;20027;-72
2021/05/25 02:17:34;;;;;;;15.98;3.05;;;9.40;99.90;;;9.14;96.05;101611.84;4119022;28;20074;-72
2021/05/25 02:19:35;;;;;;;10.80;3.30;;;9.40;99.90;;;9.26;95.67;101610.84;4134950;28;20034;-72
2021/05/25 02:21:36;;;;;;;12.70;3.40;;;9.50;99.90;;;9.26;95.77;101615.25;4120219;28;20438;-72
2021/05/25 02:23:37;;;;;;;10.68;2.40;;;9.40;99.90;;;9.40;94.88;101622.88;4120445;28;20042;-72
2021/05/25 02:25:39;;;;;;;12.10;2.92;;;9.50;99.90;;;9.43;95.08;101626.09;4120203;28;20030;-72
2021/05/25 02:27:40;;;;;;;14.15;3.63;;;9.50;99.90;;;9.23;95.79;101618.16;4120136;28;20045;-72
2021/05/25 02:29:41;;;;;;;14.32;3.22;;;9.50;99.90;;;9.13;96.43;101615.47;4104150;28;20066;-72
2021/05/25 02:31:42;;;;;;;12.18;3.05;;;9.40;99.90;;;9.11;96.34;101624.44;4103066;28;20102;-72
2021/05/25 02:33:43;;;;;;;10.65;2.53;;;9.40;99.90;;;9.21;96.14;101630.59;4104342;28;20023;-72
2021/05/25 02:35:46;;;;;;;11.93;3.28;;;9.40;99.90;;;9.12;96.24;101618.19;4103995;28;20158;-72
2021/05/25 02:37:48;;;;;;;13.47;2.90;;;9.40;99.90;;;9.03;96.70;101618.94;4103184;28;20023;-72
2021/05/25 02:39:49;;;;;;;11.18;3.10;;;9.30;99.90;;;9.13;97.20;101625.16;4104076;28;20290;-72
2021/05/25 02:41:50;;;;;;;11.18;2.55;;;9.30;99.90;;;9.22;96.69;101629.66;4103610;28;20027;-72
2021/05/25 02:43:53;;;;;;;13.90;3.53;;;9.40;99.90;;;9.16;96.29;101630.16;4104045;28;20034;-72
2021/05/25 02:45:55;;;;;;;14.18;2.85;;;9.30;99.90;;;9.17;96.91;101634.47;4103931;28;20039;-72
2021/05/25 02:47:57;;;;;;;10.00;2.75;;;9.30;99.90;;;9.37;94.71;101637.13;4102858;28;20031;-72
2021/05/25 02:50:06;;;;;;;11.65;2.65;;;9.40;99.90;;;9.17;95.44;101637.91;4103872;28;20078;-72
2021/05/25 02:52:07;;;;;;;12.57;3.38;;;9.40;99.90;;;9.09;96.13;101636.88;4103936;28;20034;-72
2021/05/25 02:54:08;;;;;;;16.83;3.47;;;9.40;99.90;;;8.95;96.44;101632.75;4103976;28;20062;-72
2021/05/25 02:56:09;;;;;;;12.27;4.28;;;9.30;99.90;;;8.97;97.34;101645.75;4103796;28;20019;-72
2021/05/25 02:58:10;;;;;;;11.55;3.40;;;9.30;99.90;;;9.00;97.40;101634.97;4103929;28;20513;-72
2021/05/25 03:00:20;;;;;;;9.38;3.10;;;9.30;99.90;;;9.06;96.57;101642.38;4103844;28;20517;-72
2021/05/25 03:02:21;;;;;;;16.20;3.03;;;9.30;99.90;;;9.00;97.19;101648.13;4103737;28;20398;-72
2021/05/25 03:04:22;;;;;;;7.43;2.38;;;9.30;99.90;;;9.07;96.34;101654.59;4103583;28;20058;-72
2021/05/25 03:06:23;;;;;;;10.00;2.42;;;9.30;99.90;;;9.02;97.13;101657.56;4103855;28;20053;-72
2021/05/25 03:08:24;;;;;;;11.77;3.10;;;9.20;99.90;;;8.98;96.75;101650.06;4103657;28;20042;-72
2021/05/25 03:10:29;;;;;;;12.95;3.63;;;9.30;99.90;;;9.00;96.52;101661.28;4118851;28;20038;-72
2021/05/25 03:12:30;;;;;;;13.90;3.53;;;9.20;99.90;;;9.02;96.10;101659.41;4119833;28;20031;-72
2021/05/25 03:14:31;;;;;;;18.73;4.05;;;9.30;99.90;;;8.88;97.21;101663.13;4119607;28;20383;-72
2021/05/25 03:16:32;;;;;;;13.93;2.53;;;9.20;99.90;;;8.84;98.46;101659.88;4119337;28;20395;-72
2021/05/25 03:18:33;;;;;;;17.35;3.30;;;9.20;99.90;;;8.89;98.64;101662.16;4119709;28;20027;-72
2021/05/25 03:20:35;;;;;;;18.90;5.90;;;9.20;99.90;;;8.94;98.17;101667.06;4119673;28;20074;-72
2021/05/25 03:22:37;;;;;;;10.77;3.40;;;9.10;99.90;;;8.87;98.49;101662.28;4119475;28;20046;-72
2021/05/25 03:24:38;;;;;;;14.02;3.55;;;9.10;99.90;;;9.03;96.84;101663.69;4119502;28;20114;-72
2021/05/25 03:26:39;;;;;;;16.83;3.20;;;9.20;99.90;;;9.04;97.51;101662.72;4119636;28;20081;-72
2021/05/25 03:28:40;;;;;;;11.77;2.90;;;9.20;99.90;;;9.13;97.26;101662.84;4119524;28;20490;-72
2021/05/25 03:30:42;;;;;;;12.90;3.58;;;9.30;99.90;;;9.27;96.24;101653.81;4119483;28;20066;-72
2021/05/25 03:32:44;;;;;;;11.30;3.17;;;9.40;99.90;;;9.10;96.71;101656.97;4119343;28;20027;-72
2021/05/25 03:34:45;;;;;;;11.70;2.95;;;9.30;99.90;;;9.10;96.57;101673.59;4118305;28;20035;-72
2021/05/25 03:36:46;;;;;;;9.18;2.72;;;9.30;99.90;;;9.11;97.16;101666.56;4119542;28;20039;-72
2021/05/25 03:38:47;;;;;;;13.27;2.80;;;9.30;99.90;;;9.07;98.11;101668.59;4119515;28;20390;-72
2021/05/25 03:40:48;;;;;;;12.15;2.72;;;9.30;99.90;;;9.18;96.68;101665.06;4119351;28;20033;-72
2021/05/25 03:42:52;;;;;;;13.20;3.58;;;9.30;99.90;;;9.08;97.01;101664.16;4119416;28;20093;-72
2021/05/25 03:44:53;;;;;;;;;;;9.30;99.90;;;9.15;97.45;101673.22;4120197;28;20030;-72
2021/05/25 03:46:54;;;;;;;12.48;2.70;;;9.40;99.90;;;9.15;97.36;101676.69;4119460;28;19917;-72
2021/05/25 03:48:55;;;;;;;9.40;3.13;;;9.40;99.90;;;9.10;97.68;101678.03;4119289;28;20513;-72
2021/05/25 03:50:56;;;;;;;8.52;2.50;;;9.40;99.90;;;9.13;97.82;101680.41;4134287;28;20032;-73
2021/05/25 03:52:57;;;;;;;15.10;3.05;;;9.30;99.90;;;9.18;97.78;101667.72;4119520;28;20035;-72
2021/05/25 03:55:00;;;;;;;15.88;2.95;;;9.40;99.90;;;9.16;97.14;101667.00;4121200;28;20054;-72
2021/05/25 03:57:24;;;;;;;17.50;4.03;;;9.40;99.90;;;9.21;96.96;101672.72;4122249;28;20058;-72
2021/05/25 03:59:25;;;;;;;12.80;3.50;;;9.40;99.90;;;9.26;96.22;101683.72;4122547;28;20042;-72
2021/05/25 04:01:27;;;;;;;13.65;3.58;;;9.40;99.90;;;9.17;97.53;101687.13;4120763;28;20090;-72
2021/05/25 04:03:28;;;;;;;12.70;3.40;;;9.40;99.90;;;9.11;98.15;101690.25;4122038;28;20043;-72
2021/05/25 04:05:29;;;;;;;12.93;2.92;;;9.30;99.90;;;9.03;98.14;101685.56;4137145;28;20056;-72
2021/05/25 04:07:30;;;;;;;13.90;2.97;;;9.30;99.90;;;9.04;98.05;101696.94;4122265;28;20081;-72
2021/05/25 04:09:31;;;;;;;15.40;3.35;;;9.30;99.90;;;8.93;98.23;101687.25;4122228;28;20089;-72
2021/05/25 04:11:32;;;;;;;11.00;3.33;;;9.30;99.90;;;9.04;98.60;101702.22;4120916;28;20026;-72
2021/05/25 04:13:33;;;;;;;14.52;2.67;;;9.30;99.90;;;9.10;97.71;101710.47;4122459;28;20038;-72
2021/05/25 04:15:35;;;;;;;19.98;3.50;;;9.30;99.90;;;9.04;97.31;101707.47;4122248;28;20041;-72
2021/05/25 04:17:40;;;;;;;15.55;3.42;;;9.30;99.90;;;8.96;97.51;101700.19;4120662;28;20038;-72
2021/05/25 04:19:41;;;;;;;13.05;3.08;;;9.20;99.90;;;8.96;96.78;101704.63;4122153;28;20398;-72
2021/05/25 04:21:42;;;;;;;10.35;3.30;;;9.20;99.90;;;8.89;96.94;101717.44;4122240;28;20027;-72
2021/05/25 04:23:43;;;;;;;15.40;3.15;;;9.20;99.90;;;8.94;97.03;101709.16;4121819;28;20081;-72
2021/05/25 04:25:45;;;;;;;11.77;4.00;;;9.20;99.90;;;8.85;97.46;101715.97;4120944;28;20026;-72
2021/05/25 04:27:46;;;;;;;11.50;2.92;;;9.20;99.90;;;8.85;98.41;101724.72;4121897;28;20376;-72
2021/05/25 04:29:47;;;;;;;17.77;3.78;;;9.20;99.90;;;8.87;97.86;101714.91;4120742;28;20030;-72
2021/05/25 04:31:48;;;;;;;12.98;3.20;;;9.20;99.90;;;8.87;97.80;101735.09;4121731;28;20102;-72
2021/05/25 04:33:48;;;;;;;10.20;3.53;;;9.20;99.90;;;8.81;97.76;101736.44;4121994;28;20054;-72
2021/05/25 04:35:49;;;;;;;15.43;3.50;;;9.10;99.90;;;8.70;97.62;101739.06;4121739;28;20487;-72
2021/05/25 04:37:51;;;;;;;15.68;3.17;;;9.10;99.90;;;8.65;99.19;101738.59;4121915;28;20031;-72
2021/05/25 04:39:52;;;;;;;11.23;4.05;;;9.10;99.90;;;8.76;98.96;101745.66;4121871;28;20031;-72
2021/05/25 04:41:53;;;;;;;15.00;3.60;;;9.10;99.90;;;8.76;98.56;101743.84;4121793;28;20122;-72
2021/05/25 04:43:54;;;;;;;13.30;2.65;;;9.10;99.90;;;8.85;97.13;101758.06;4121628;28;20035;-73
2021/05/25 04:45:55;;;;;;;17.15;3.83;;;9.10;99.90;;;8.79;98.19;101748.88;4121608;28;20110;-73
2021/05/25 04:47:56;;;;;;;10.23;2.42;;;9.10;99.90;;;8.81;98.87;101761.94;4120314;28;20034;-73
2021/05/25 04:49:57;;;;;;;11.48;3.35;;;9.10;99.90;;;8.78;98.15;101768.25;4121586;28;20038;-73
2021/05/25 04:51:58;;;;;;;14.85;2.72;;;9.10;99.90;;;8.79;98.67;101759.41;4121366;28;20019;-73
2021/05/25 04:53:59;;;;;;;12.70;4.18;;;9.20;99.90;;;8.62;99.30;101754.63;4121671;28;20031;-73
2021/05/25 04:56:00;;;;;;;12.15;3.65;;;9.10;99.90;;;8.71;99.21;101751.28;4120305;28;20065;-73
2021/05/25 04:58:02;;;;;;;14.98;2.40;;;9.20;99.90;;;8.99;97.89;101770.16;4121585;28;20030;-73
2021/05/25 05:00:10;;;;;;;13.40;2.72;;;9.20;99.90;;;8.94;97.60;101767.03;4121429;28;20023;-73
2021/05/25 05:02:11;;;;;;;19.02;4.30;;;9.20;99.90;;;9.00;96.97;101767.41;4121120;28;20035;-73
2021/05/25 05:04:12;;;;;;;9.60;3.10;;;9.30;99.90;;;8.88;97.88;101771.00;4121260;28;20513;-73
2021/05/25 05:06:13;;;;;;;21.38;4.25;;;9.30;99.90;;;8.80;98.05;101771.59;4120769;28;20077;-73
2021/05/25 05:08:14;;;;;;;15.15;3.10;;;9.30;99.90;;;8.83;98.21;101771.38;4119997;28;20026;-73
2021/05/25 05:10:18;;;;;;;12.80;2.97;;;9.30;99.90;;;8.86;98.64;101780.81;4119888;28;20046;-73
2021/05/25 05:12:19;;;;;;;;;;;9.20;99.90;;;8.80;98.84;101774.25;4121923;28;20503;-73
2021/05/25 05:14:20;;;;;;;15.80;3.90;;;9.30;99.90;;;8.89;99.04;101791.09;4121147;28;19913;-73
2021/05/25 05:16:21;;;;;;;14.88;3.60;;;9.30;99.90;;;9.00;98.37;101791.09;4120821;28;20027;-73
2021/05/25 05:18:21;;;;;;;11.95;3.35;;;9.40;99.90;;;9.07;98.73;101791.44;4121248;28;20390;-73
2021/05/25 05:20:22;;;;;;;11.15;3.92;;;9.40;99.90;;;9.13;98.34;101785.69;4121193;28;20052;-73
2021/05/25 05:22:24;;;;;;;13.50;4.28;;;9.50;99.90;;;9.20;98.74;101794.81;4120877;28;20486;-73
2021/05/25 05:24:25;;;;;;;14.93;3.55;;;9.50;99.90;;;9.18;98.54;101802.81;4106867;28;20055;-73
2021/05/25 05:26:27;;;;;;;14.07;3.30;;;9.50;99.90;;;9.25;98.64;101805.78;4103976;28;20031;-74
2021/05/25 05:28:28;;;;;;;20.23;4.43;;;9.60;99.90;;;9.24;97.35;101807.59;4105136;28;20031;-73
2021/05/25 05:30:30;;;;;;;15.05;3.70;;;9.70;99.90;;;9.32;98.25;101810.44;4104920;28;20067;-73
2021/05/25 05:32:31;;;;;;;12.82;3.85;;;9.70;99.90;;;9.39;97.89;101819.53;4104601;28;20379;-73
2021/05/25 05:34:33;;;;;;;16.77;3.15;;;9.70;99.90;;;9.45;97.59;101811.16;4105116;28;20491;-73
2021/05/25 05:36:34;;;;;;;17.52;3.80;;;9.80;99.90;;;9.48;96.92;101819.75;4119752;28;20052;-73
2021/05/25 05:38:35;;;;;;;11.63;3.47;;;9.80;99.90;;;9.48;97.27;101812.69;4104942;28;20553;-73
2021/05/25 05:40:36;;;;;;;16.63;3.63;;;9.80;99.90;;;9.61;96.92;101809.91;4104906;28;20063;-73
2021/05/25 05:42:36;;;;;;;16.17;3.45;;;9.90;99.90;;;9.66;97.83;101821.75;4104973;28;20090;-73
2021/05/25 05:44:37;;;;;;;12.93;3.17;;;10.00;99.90;;;9.74;97.06;101807.94;4104928;28;20062;-73
2021/05/25 05:46:38;;;;;;;17.05;4.30;;;10.10;99.90;;;9.67;97.35;101806.78;4104553;28;20530;-73
2021/05/25 05:48:39;;;;;;;14.57;3.15;;;10.20;99.90;;;9.90;96.56;101819.78;4104679;28;20114;-73
2021/05/25 05:50:40;;;;;;;18.90;3.88;;;10.20;99.90;;;10.01;96.39;101821.50;4120713;28;20126;-73
2021/05/25 05:52:42;;;;;;;11.88;2.83;;;10.30;99.90;;;10.20;95.24;101828.78;4120704;28;20518;-72
2021/05/25 05:54:43;;;;;;;10.05;3.03;;;10.40;99.90;;;10.27;95.21;101825.53;4120526;28;20031;-72
2021/05/25 05:56:48;;;;;;;13.38;2.92;;;10.60;99.90;;;10.38;94.35;101814.06;4120610;28;20019;-73
2021/05/25 05:58:50;;;;;;;17.73;4.05;;;10.70;99.90;;;10.77;93.58;101829.16;4119496;28;20114;-73
2021/05/25 06:00:51;;;;;;;14.52;2.85;;;10.90;99.90;;;10.91;91.06;101836.75;4120553;28;20026;-73
2021/05/25 06:02:52;;;;;;;16.58;3.88;;;11.20;99.90;;;10.87;90.40;101829.22;4120424;28;20031;-73
2021/05/25 06:04:53;;;;;;;9.65;2.83;;;11.20;99.90;;;10.82;91.13;101836.69;4120341;28;20446;-73
2021/05/25 06:06:54;;;;;;;10.65;3.15;;;11.20;99.90;;;10.71;90.67;101845.53;4120334;28;20054;-73
2021/05/25 06:08:55;;;;;;;14.85;3.88;;;11.20;99.90;;;10.63;91.80;101847.97;4120277;28;20023;-73
2021/05/25 06:10:55;;;;;;;13.00;3.58;;;11.20;99.90;;;10.59;91.21;101843.91;4120294;28;20023;-73
2021/05/25 06:12:57;;;;;;;16.15;3.72;;;11.20;99.90;;;10.55;91.85;101851.25;4120270;28;20109;-73
2021/05/25 06:14:58;;;;;;;14.10;2.60;;;11.20;99.90;;;10.67;92.44;101851.19;4119026;28;20023;-73
2021/05/25 06:17:01;;;;;;;13.07;2.60;;;11.20;99.90;;;10.77;92.03;101862.63;4119223;28;20549;-73
2021/05/25 06:19:02;;;;;;;10.77;3.15;;;11.30;99.90;;;10.84;91.70;101861.97;4120108;28;20031;-73
2021/05/25 06:21:04;;;;;;;15.85;3.45;;;11.30;99.90;;;10.80;92.15;101870.28;4120147;28;20042;-73
2021/05/25 06:23:05;;;;;;;18.60;3.50;;;11.30;99.90;;;10.75;91.78;101857.47;4120177;28;20382;-73
2021/05/25 06:25:07;;;;;;;16.30;3.42;;;11.30;99.90;;;10.89;91.60;101865.06;4120242;28;20446;-73
2021/05/25 06:27:08;;;;;;;19.80;4.82;;;11.30;99.90;;;10.89;91.05;101859.81;4120290;28;20567;-73
2021/05/25 06:29:10;;;;;;;14.55;3.92;;;11.40;99.90;;;10.93;91.63;101858.56;4119982;28;20063;-72
2021/05/25 06:31:11;;;;;;;15.82;3.50;;;11.40;99.90;;;10.90;90.66;101860.63;4119790;28;20486;-73
2021/05/25 06:33:12;;;;;;;13.68;3.53;;;11.40;99.90;;;11.03;90.37;101855.97;4120125;28;20054;-73
2021/05/25 06:35:13;;;;;;;11.45;3.20;;;11.50;99.90;;;10.99;90.01;101873.88;4119943;28;20031;-73
2021/05/25 06:37:14;;;;;;;21.67;3.70;;;11.60;99.90;;;10.78;91.28;101862.50;4120145;28;20041;-73
2021/05/25 06:39:15;;;;;;;15.05;2.97;;;11.60;99.90;;;10.80;90.61;101863.22;4118597;28;20034;-73
2021/05/25 06:41:16;;;;;;;13.75;4.10;;;11.50;99.90;;;10.78;91.15;101865.13;4119989;28;20038;-73
2021/05/25 06:43:17;;;;;;;13.23;3.05;;;11.50;99.90;;;10.83;90.44;101862.97;4119912;28;20038;-73
2021/05/25 06:45:18;;;;;;;12.98;3.17;;;11.50;99.90;;;11.04;90.78;101871.69;4118407;28;20027;-73
2021/05/25 06:47:19;;;;;;;10.55;3.17;;;11.60;99.90;;;11.15;90.38;101875.19;4119647;28;20031;-73
2021/05/25 06:49:19;;;;;;;20.10;4.38;;;11.70;99.90;;;11.18;90.48;101875.78;4118319;28;20034;-73
2021/05/25 06:51:20;;;;;;;15.98;3.90;;;11.70;99.90;;;11.07;91.37;101870.59;4134761;28;20114;-73
2021/05/25 06:53:21;;;;;;;13.70;2.92;;;11.70;99.90;;;11.17;91.60;101860.06;4116460;28;20027;-74
2021/05/25 06:55:22;;;;;;;13.65;3.47;;;11.80;99.90;;;11.19;90.66;101879.25;4103232;28;20028;-75
2021/05/25 06:57:23;;;;;;;17.90;3.40;;;11.80;99.90;;;11.33;91.08;101874.44;4102735;28;20055;-75
2021/05/25 06:59:24;;;;;;;10.07;2.55;;;11.90;99.90;;;11.33;89.95;101868.31;4103620;28;20035;-74
2021/05/25 07:01:25;;;;;;;19.20;3.60;;;12.00;99.90;;;11.33;89.94;101877.09;4103348;28;20031;-74
2021/05/25 07:03:26;;;;;;;15.85;4.25;;;12.00;99.90;;;11.38;90.12;101879.34;4103563;28;20062;-74
2021/05/25 07:05:27;;;;;;;16.88;3.03;;;12.00;99.90;;;11.36;88.65;101870.69;4103584;28;20126;-74
2021/05/25 07:07:28;;;;;;;16.70;3.30;;;12.10;99.90;;;11.57;88.94;101876.75;4102454;28;20033;-74
2021/05/25 07:09:29;;;;;;;14.60;3.60;;;12.20;99.90;;;11.57;89.11;101877.59;4111087;28;20061;-74
2021/05/25 07:11:30;;;;;;;13.13;3.28;;;12.20;99.90;;;11.44;88.46;101886.75;4118522;28;20387;-74
2021/05/25 07:13:31;;;;;;;18.05;3.08;;;12.20;99.90;;;11.49;88.95;101880.09;4134543;28;20027;-75
2021/05/25 07:15:32;;;;;;;13.80;3.80;;;12.30;99.90;;;11.60;87.88;101871.19;4119332;28;20027;-75
2021/05/25 07:17:32;;;;;;;13.18;3.67;;;12.30;99.90;;;11.59;86.12;101877.44;4119437;28;20027;-75
2021/05/25 07:19:34;;;;;;;10.88;4.22;;;12.40;99.90;;;11.66;86.48;101884.72;4119556;28;20577;-74
2021/05/25 07:21:35;;;;;;;19.00;4.47;;;12.40;99.90;;;11.78;86.34;101885.47;4122860;28;20029;-74
2021/05/25 07:23:36;;;;;;;14.32;3.28;;;12.50;99.90;;;11.76;85.15;101884.78;4122979;28;20110;-74
2021/05/25 07:25:37;;;;;;;15.43;2.88;;;12.50;99.90;;;11.83;85.16;101893.81;4102025;28;20549;-74
2021/05/25 07:27:38;;;;;;;10.63;3.03;;;12.60;99.90;;;11.75;84.34;101891.03;4103609;28;20037;-75
2021/05/25 07:29:39;;;;;;;14.23;3.47;;;12.60;99.90;;;11.83;84.10;101887.69;4106474;28;20486;-74
2021/05/25 07:31:41;;;;;;;10.65;2.40;;;12.60;99.90;;;11.89;83.41;101897.72;4106573;28;20023;-75
2021/05/25 07:33:42;;;;;;;26.23;3.80;;;12.70;99.90;;;11.76;83.66;101902.44;4106805;28;20447;-75
2021/05/25 07:35:43;;;;;;;13.77;3.33;;;12.80;99.90;;;11.89;83.42;101893.28;4106265;28;20027;-71
2021/05/25 07:37:44;;;;;;;10.43;2.80;;;12.80;99.90;;;12.24;83.83;101905.16;4106355;28;20078;-72
2021/05/25 07:39:46;;;;;;;15.32;3.72;;;13.00;99.90;;;12.46;83.24;101902.22;4105004;28;20135;-72
2021/05/25 07:41:47;;;;;;;13.57;3.10;;;13.30;99.90;;;12.54;82.54;101905.03;4106401;28;20035;-72
2021/05/25 07:43:48;;;;;;;9.63;2.92;;;13.60;99.90;;;12.61;80.21;101908.75;4105108;28;20511;-71
2021/05/25 07:45:49;;;;;;;12.38;3.05;;;13.70;99.90;;;12.83;79.95;101905.81;4105853;28;20491;-71
2021/05/25 07:47:50;;;;;;;15.48;3.47;;;13.70;99.90;;;12.76;79.78;101915.31;4106328;28;20062;-71
2021/05/25 07:49:51;;;;;;;11.93;3.53;;;13.80;99.90;;;12.75;79.10;101901.22;4106114;28;20559;-71
2021/05/25 07:51:53;;;;;;;10.45;2.80;;;13.90;99.90;;;12.98;78.85;101911.50;4106435;28;20027;-72
2021/05/25 07:53:54;;;;;;;10.23;2.05;;;14.10;99.90;;;13.07;79.57;101918.59;4121186;28;20114;-72
2021/05/25 07:55:55;;;;;;;8.30;2.63;;;14.20;99.90;;;12.89;77.24;101904.41;4106147;28;20542;-71
2021/05/25 07:57:58;;;;;;;11.15;3.10;;;14.20;99.90;;;12.98;79.73;101915.00;4105107;28;20488;-72
2021/05/25 07:59:59;;;;;;;12.13;2.92;;;14.20;99.90;;;13.19;77.05;101899.78;4105890;28;20041;-73
2021/05/25 08:02:00;;;;;;;12.57;2.88;;;14.30;99.90;;;13.24;77.71;101908.09;4105852;28;20067;-72
2021/05/25 08:04:01;;;;;;;14.18;3.20;;;14.50;99.90;;;13.19;75.70;101905.06;4106161;28;20470;-72
2021/05/25 08:06:04;;;;;;;9.50;3.38;;;14.50;99.90;;;13.32;76.12;101908.22;4105935;28;20075;-72
2021/05/25 08:08:08;;;;;;;16.23;4.25;;;14.60;99.90;;;13.45;78.04;101904.41;4106102;28;20023;-71
2021/05/25 08:10:12;;;;;;;11.13;3.00;;;14.70;99.90;;;13.51;75.93;101917.06;4118673;28;20043;-72
2021/05/25 08:12:12;;;;;;;9.63;2.38;;;14.80;99.90;;;13.51;72.10;101922.38;4122262;28;20406;-71
2021/05/25 08:14:13;;;;;;;14.80;2.55;;;14.90;99.90;;;13.35;71.86;101922.97;4120930;28;20031;-71
2021/05/25 08:16:16;;;;;;;11.18;3.03;;;15.00;99.90;;;13.72;75.43;101920.31;4121346;28;20442;-72
2021/05/25 08:21:01;;;;;;;10.25;2.90;;;15.30;99.90;;;13.89;72.93;101919.50;4087375;29;20546;-70
2021/05/25 08:23:06;;;;;;;11.27;3.10;;;15.30;99.90;;;14.06;73.78;101917.88;4103656;29;20118;-70
2021/05/25 08:25:08;;;;;;;9.18;2.38;;;15.40;99.90;;;14.15;73.70;101932.91;4103363;29;20506;-72
2021/05/25 08:27:09;;;;;;;13.15;2.20;;;15.40;99.90;;;13.93;69.60;101934.16;4121309;28;20491;-72
2021/05/25 08:29:10;;;;;;;8.60;2.10;;;15.40;99.90;;;14.12;68.51;101928.75;4109680;28;20027;-71
2021/05/25 08:31:10;;;;;;;10.32;2.40;;;15.50;99.90;;;13.97;67.99;101932.91;4105299;28;20039;-71